This is the latest recevied weather packets stored in our database for station/object E22ZMG-10. If no packets are shown the sender has not sent any weather packets the latest 10 day(s).
| Time | Temp. | Humidity | Pressure | Rain* | Wind** | Luminosity | Snow |
|---|---|---|---|---|---|---|---|
| 1777950907 | 35° C | 46% | 978 hPa | - | - | 0 W/m² | - |
| 1777950283 | 35° C | 46% | 978 hPa | - | - | 0 W/m² | - |
| 1777949659 | 35° C | 46% | 979 hPa | - | - | 0 W/m² | - |
| 1777949035 | 35° C | 46% | 979 hPa | - | - | 0 W/m² | - |
| 1777948411 | 35° C | 46% | 979 hPa | - | - | 0 W/m² | - |
| 1777947786 | 35° C | 46% | 978 hPa | - | - | 0 W/m² | - |
| 1777947166 | 34.44° C | 47% | 978 hPa | - | - | 0 W/m² | - |
| 1777946538 | 34.44° C | 47% | 978 hPa | - | - | 0 W/m² | - |
| 1777945913 | 34.44° C | 47% | 978 hPa | - | - | 0 W/m² | - |
| 1777945289 | 34.44° C | 47% | 978 hPa | - | - | 0 W/m² | - |
| 1777944664 | 34.44° C | 47% | 978 hPa | - | - | 0 W/m² | - |
| 1777944040 | 34.44° C | 47% | 978 hPa | - | - | 0 W/m² | - |
| 1777943416 | 34.44° C | 48% | 978 hPa | - | - | 0 W/m² | - |
| 1777942792 | 33.33° C | 50% | 978 hPa | - | - | 0 W/m² | - |
| 1777942167 | 32.22° C | 53% | 978 hPa | - | - | 0 W/m² | - |
| 1777941543 | 32.78° C | 52% | 978 hPa | - | - | 0 W/m² | - |
| 1777940919 | 32.78° C | 53% | 978 hPa | - | - | 0 W/m² | - |
| 1777940295 | 32.22° C | 52% | 977 hPa | - | - | 0 W/m² | - |
| 1777939671 | 32.22° C | 52% | 977 hPa | - | - | 0 W/m² | - |
| 1777939047 | 31.67° C | 55% | 977 hPa | - | - | 0 W/m² | - |
| 1777938422 | 31.67° C | 54% | 977 hPa | - | - | 0 W/m² | - |
| 1777937798 | 31.67° C | 54% | 977 hPa | - | - | 0 W/m² | - |
| 1777937174 | 31.67° C | 54% | 977 hPa | - | - | 0 W/m² | - |
| 1777936550 | 32.78° C | 52% | 977 hPa | - | - | 0 W/m² | - |
| 1777935926 | 32.22° C | 52% | 977 hPa | - | - | 0 W/m² | - |
* Rain since midnight (hover to see other rain measurements)
** Current wind speed in m/s (hover to see current wind gust speed)